Time;durP1;ratioP1;P1;durP2;ratioP2;P2;SDS_P1;SDS_P2;PMS_P1;PMS_P2;Temp;Humidity;BMP_temperature;BMP_pressure;BME280_temperature;BME280_humidity;BME280_pressure;Samples;Min_cycle;Max_cycle;Signal;HPM_P1;HPM_P2
2023/08/10 00:00:15;;;;;;;9.30;2.70;;;;;;;13.45;100.00;101905.88;5043169;28;20017;-96
2023/08/10 00:02:45;;;;;;;8.43;2.40;;;;;;;13.55;100.00;101912.78;5038995;28;20036;-96
2023/08/10 00:05:13;;;;;;;8.70;2.53;;;;;;;13.64;100.00;101916.97;5037386;28;20112;-96
2023/08/10 00:07:41;;;;;;;5.00;2.60;;;;;;;13.68;100.00;101920.97;5021866;28;20040;-96
2023/08/10 00:10:08;;;;;;;9.03;2.40;;;;;;;13.69;100.00;101917.22;5038287;28;20120;-96
2023/08/10 00:12:37;;;;;;;6.25;2.70;;;;;;;13.70;100.00;101916.16;5041341;28;20042;-96
2023/08/10 00:15:03;;;;;;;6.03;3.00;;;;;;;13.67;100.00;101917.41;5032340;28;20041;-96
2023/08/10 00:17:33;;;;;;;4.13;2.40;;;;;;;13.69;100.00;101914.47;5042167;28;20030;-96
2023/08/10 00:20:01;;;;;;;4.80;2.50;;;;;;;13.77;100.00;101922.44;5028471;28;20060;-96
2023/08/10 00:22:29;;;;;;;4.83;2.70;;;;;;;13.78;100.00;101915.09;5043567;28;20025;-96
2023/08/10 00:24:55;;;;;;;6.38;2.90;;;;;;;13.81;100.00;101920.97;5028684;28;20042;-96
2023/08/10 00:27:24;;;;;;;4.63;2.23;;;;;;;13.92;100.00;101924.97;5043412;28;20025;-96
2023/08/10 00:29:50;;;;;;;7.15;2.92;;;;;;;13.94;100.00;101924.75;5009760;28;20117;-96
2023/08/10 00:32:36;;;;;;;;;;;;;;;;;;;;;
2023/08/10 00:35:13;;;;;;;4.28;2.28;;;;;;;13.93;100.00;101923.91;5039390;28;20120;-96
2023/08/10 00:37:44;;;;;;;7.65;2.90;;;;;;;13.96;100.00;101923.47;5038655;28;20040;-96
2023/08/10 00:40:22;;;;;;;;;;;;;;;;;;;;;
2023/08/10 00:42:50;;;;;;;7.07;2.95;;;;;;;14.02;100.00;101928.09;5043726;28;20481;-96
2023/08/10 00:45:26;;;;;;;6.50;2.85;;;;;;;14.04;100.00;101922.44;5038972;28;20064;-96
2023/08/10 00:47:52;;;;;;;7.10;2.60;;;;;;;14.00;100.00;101922.00;5025653;28;20545;-96
2023/08/10 00:50:17;;;;;;;6.13;2.70;;;;;;;14.02;100.00;101916.34;5039522;28;20077;-96
2023/08/10 00:52:44;;;;;;;9.88;2.55;;;;;;;13.98;100.00;101917.78;5042554;28;20037;-96
2023/08/10 00:55:10;;;;;;;7.10;2.78;;;;;;;13.96;100.00;101911.72;5042695;28;20485;-96
2023/08/10 00:57:38;;;;;;;4.27;2.77;;;;;;;13.88;100.00;101910.06;5044116;28;20052;-95
2023/08/10 01:00:10;;;;;;;6.72;2.50;;;;;;;13.85;100.00;101911.31;5043811;28;20079;-96
2023/08/10 01:02:38;;;;;;;5.85;2.70;;;;;;;13.79;100.00;101911.31;5043930;28;20036;-96
2023/08/10 01:05:06;;;;;;;7.45;2.78;;;;;;;13.80;100.00;101918.44;5042648;28;20057;-96
2023/08/10 01:07:57;;;;;;;8.70;2.83;;;;;;;13.73;100.00;101921.19;5042424;28;20053;-96
2023/08/10 01:10:37;;;;;;;4.33;2.80;;;;;;;13.72;100.00;101924.13;5045011;28;20044;-96
2023/08/10 01:13:20;;;;;;;6.95;2.92;;;;;;;13.63;100.00;101926.22;5044318;28;20040;-96
2023/08/10 01:16:00;;;;;;;9.60;2.90;;;;;;;13.58;100.00;101923.28;5047408;28;20051;-96
2023/08/10 01:18:28;;;;;;;7.25;2.92;;;;;;;13.53;100.00;101910.28;5043657;28;20095;-96
2023/08/10 01:20:59;;;;;;;4.72;3.00;;;;;;;13.53;100.00;101923.91;5040740;28;20056;-96
2023/08/10 01:23:37;;;;;;;5.27;3.17;;;;;;;13.55;100.00;101923.69;5025938;28;20032;-95
2023/08/10 01:26:08;;;;;;;5.15;2.85;;;;;;;13.57;100.00;101916.13;5041758;28;20032;-96
2023/08/10 01:28:34;;;;;;;5.88;2.75;;;;;;;13.59;100.00;101923.06;5042361;28;20135;-96
2023/08/10 01:31:00;;;;;;;6.15;2.80;;;;;;;13.59;100.00;101923.06;5040921;28;20022;-96
2023/08/10 01:33:33;;;;;;;6.18;3.13;;;;;;;13.53;100.00;101926.63;5039576;28;20025;-96
2023/08/10 01:35:59;;;;;;;7.57;3.23;;;;;;;13.48;100.00;101921.00;5042922;28;20039;-96
2023/08/10 01:38:32;;;;;;;4.43;3.22;;;;;;;13.53;100.00;101928.53;5041710;28;20116;-96
2023/08/10 01:40:58;;;;;;;6.00;3.30;;;;;;;13.56;100.00;101926.22;5042413;28;20068;-96
2023/08/10 01:43:23;;;;;;;6.18;3.35;;;;;;;13.56;100.00;101925.38;5041385;28;20034;-96
2023/08/10 01:45:57;;;;;;;6.53;3.40;;;;;;;13.53;100.00;101926.63;5042698;28;20104;-96
2023/08/10 01:48:32;;;;;;;6.30;2.83;;;;;;;13.50;100.00;101932.50;5042683;28;20033;-96
2023/08/10 01:51:04;;;;;;;9.48;3.55;;;;;;;13.43;100.00;101924.31;5043524;28;20414;-96
2023/08/10 01:53:37;;;;;;;8.40;3.67;;;;;;;13.42;100.00;101919.06;5041471;28;20032;-96
2023/08/10 01:56:03;;;;;;;8.67;3.90;;;;;;;13.41;100.00;101925.59;5037521;28;20063;-96
2023/08/10 01:58:31;;;;;;;5.28;3.20;;;;;;;13.41;100.00;101928.31;5038021;28;20029;-96
2023/08/10 02:00:57;;;;;;;5.88;3.15;;;;;;;13.37;100.00;101927.88;5039044;28;20466;-96
2023/08/10 02:03:23;;;;;;;7.60;3.47;;;;;;;13.38;100.00;101929.56;5037665;28;20032;-96
2023/08/10 02:08:42;;;;;;;5.45;3.45;;;;;;;13.25;100.00;101932.22;5036651;28;20037;-96
2023/08/10 02:11:10;;;;;;;8.70;3.30;;;;;;;13.19;100.00;101939.34;5035971;28;20037;-96
2023/08/10 02:13:35;;;;;;;5.10;3.20;;;;;;;13.11;100.00;101939.53;5035338;28;20033;-96
2023/08/10 02:16:14;;;;;;;7.23;3.00;;;;;;;12.97;100.00;101922.31;5034826;28;20037;-96
2023/08/10 02:18:41;;;;;;;6.68;3.13;;;;;;;12.89;100.00;101931.53;5036142;28;20025;-96
2023/08/10 02:21:17;;;;;;;;;;;;;;;;;;;;;
2023/08/10 02:23:43;;;;;;;4.90;3.08;;;;;;;12.84;100.00;101934.00;5036676;28;20036;-96
2023/08/10 02:26:12;;;;;;;6.13;3.60;;;;;;;12.81;100.00;101934.41;5035288;28;20112;-96
2023/08/10 02:28:44;;;;;;;4.97;2.80;;;;;;;12.79;100.00;101934.63;5034995;28;20033;-96
2023/08/10 02:31:20;;;;;;;7.38;3.25;;;;;;;12.82;100.00;101941.53;5034535;28;20056;-95
2023/08/10 02:33:48;;;;;;;10.35;3.60;;;;;;;12.76;100.00;101935.03;5035388;28;20132;-96
2023/08/10 02:36:16;;;;;;;6.27;3.70;;;;;;;12.73;100.00;101940.03;5035487;28;20025;-96
2023/08/10 02:38:41;;;;;;;5.82;3.47;;;;;;;12.71;100.00;101944.84;5034842;28;20033;-96
2023/08/10 02:41:09;;;;;;;6.80;3.78;;;;;;;12.67;100.00;101949.88;5019210;28;20048;-96
2023/08/10 02:43:35;;;;;;;7.77;3.60;;;;;;;12.62;100.00;101938.72;5035469;28;20034;-96
2023/08/10 02:46:01;;;;;;;7.65;3.72;;;;;;;12.61;100.00;101940.63;5035839;28;20033;-96
2023/08/10 02:48:32;;;;;;;4.97;3.45;;;;;;;12.55;100.00;101940.56;5035227;28;20091;-96
2023/08/10 02:51:01;;;;;;;6.70;3.70;;;;;;;12.49;100.00;101934.06;5035063;28;20477;-96
2023/08/10 02:53:28;;;;;;;6.30;3.70;;;;;;;12.45;100.00;101947.22;5034867;28;20140;-96
2023/08/10 02:55:56;;;;;;;8.25;4.10;;;;;;;12.33;100.00;101940.69;5034378;28;20029;-96
2023/08/10 02:58:25;;;;;;;10.18;3.53;;;;;;;12.31;100.00;101947.38;5034116;28;20090;-96
2023/08/10 03:00:53;;;;;;;8.82;3.83;;;;;;;12.29;100.00;101942.13;5033403;28;20037;-96
2023/08/10 03:03:22;;;;;;;12.17;3.70;;;;;;;12.23;100.00;101946.47;5034466;28;20028;-96
2023/08/10 03:05:51;;;;;;;6.90;4.32;;;;;;;12.19;100.00;101942.47;5034887;28;20030;-96
2023/08/10 03:08:16;;;;;;;6.97;4.18;;;;;;;12.18;100.00;101945.38;5034758;28;20061;-96
2023/08/10 03:10:42;;;;;;;7.17;4.27;;;;;;;12.16;100.00;101952.91;5037827;28;20067;-96
2023/08/10 03:13:07;;;;;;;6.88;3.92;;;;;;;12.13;100.00;101954.16;5021345;28;20103;-96
2023/08/10 03:15:33;;;;;;;7.27;4.30;;;;;;;12.13;100.00;101954.16;5038687;28;20116;-96
2023/08/10 03:17:58;;;;;;;7.40;3.87;;;;;;;12.13;100.00;101956.03;5022813;28;20100;-96
2023/08/10 03:20:24;;;;;;;9.35;4.25;;;;;;;12.14;100.00;101963.16;5039878;28;20108;-96
2023/08/10 03:22:52;;;;;;;6.83;4.00;;;;;;;12.19;100.00;101968.84;5039348;28;20022;-96
2023/08/10 03:25:19;;;;;;;6.25;3.97;;;;;;;12.11;100.00;101961.69;5021632;28;20101;-96
2023/08/10 03:27:47;;;;;;;9.40;4.65;;;;;;;12.07;100.00;101954.94;5038024;28;20033;-96
2023/08/10 03:30:13;;;;;;;9.02;4.18;;;;;;;12.04;100.00;101958.91;5037631;28;20037;-96
2023/08/10 03:32:46;;;;;;;7.43;4.20;;;;;;;12.06;100.00;101951.41;5038323;28;20025;-96
2023/08/10 03:35:13;;;;;;;5.97;4.03;;;;;;;12.07;100.00;101960.38;5037930;28;20036;-96
2023/08/10 03:37:38;;;;;;;10.38;4.60;;;;;;;12.02;100.00;101938.41;5038156;28;20028;-96
2023/08/10 03:40:07;;;;;;;9.03;4.30;;;;;;;12.03;100.00;101943.63;5039643;28;20029;-96
2023/08/10 03:42:35;;;;;;;8.40;4.05;;;;;;;12.00;100.00;101943.19;5037979;28;20037;-96
2023/08/10 03:45:04;;;;;;;9.32;4.47;;;;;;;12.00;100.00;101948.63;5038781;28;20036;-96
2023/08/10 03:47:35;;;;;;;8.17;4.17;;;;;;;11.97;100.00;101955.28;5038111;28;20029;-96
2023/08/10 03:50:03;;;;;;;6.10;4.20;;;;;;;11.97;100.00;101955.28;5037221;28;20509;-96
2023/08/10 03:52:28;;;;;;;10.23;4.35;;;;;;;11.96;100.00;101958.19;5038179;28;20033;-96
2023/08/10 03:54:54;;;;;;;7.90;4.40;;;;;;;11.94;100.00;101958.41;5037766;28;20366;-96
2023/08/10 03:57:24;;;;;;;10.20;4.28;;;;;;;11.91;100.00;101956.91;5036921;28;20025;-96
2023/08/10 04:00:00;;;;;;;8.87;4.23;;;;;;;11.91;100.00;101956.06;5038259;28;20040;-95
2023/08/10 04:02:28;;;;;;;7.55;4.40;;;;;;;11.90;100.00;101954.38;5036417;28;20029;-96
2023/08/10 04:04:57;;;;;;;6.60;4.03;;;;;;;11.89;100.00;101960.84;5036276;28;20029;-96
2023/08/10 04:07:25;;;;;;;10.65;4.72;;;;;;;11.88;100.00;101960.00;5019004;28;20100;-96
2023/08/10 04:09:51;;;;;;;7.47;4.68;;;;;;;11.80;100.00;101962.88;5020676;28;20057;-96
2023/08/10 04:12:19;;;;;;;7.37;4.20;;;;;;;11.80;100.00;101965.59;5038047;28;20021;-96
2023/08/10 04:14:45;;;;;;;9.13;4.63;;;;;;;11.80;100.00;101962.03;5037637;28;20049;-96
2023/08/10 04:17:20;;;;;;;8.87;4.43;;;;;;;11.81;100.00;101966.41;5021210;28;20037;-96
2023/08/10 04:19:56;;;;;;;7.00;4.47;;;;;;;11.79;100.00;101969.34;5021680;28;20038;-96
2023/08/10 04:22:25;;;;;;;7.93;5.18;;;;;;;11.79;100.00;101966.63;5038398;28;20034;-95
2023/08/10 04:24:51;;;;;;;6.88;5.13;;;;;;;11.81;100.00;101969.16;5038349;28;20032;-96
2023/08/10 04:27:20;;;;;;;9.40;4.87;;;;;;;11.79;100.00;101966.63;5038099;28;20025;-96
2023/08/10 04:29:48;;;;;;;6.43;4.63;;;;;;;11.81;100.00;101967.28;5037320;28;20116;-96
2023/08/10 04:32:14;;;;;;;6.65;4.95;;;;;;;11.86;100.00;101978.41;5037951;28;20093;-96
2023/08/10 04:34:44;;;;;;;7.95;4.85;;;;;;;11.84;100.00;101972.31;5037281;28;20033;-96
2023/08/10 04:37:10;;;;;;;9.35;4.90;;;;;;;11.88;100.00;101973.59;5036200;28;20057;-96
2023/08/10 04:39:43;;;;;;;7.57;4.70;;;;;;;11.87;100.00;101974.66;5037230;28;20437;-96
2023/08/10 04:42:14;;;;;;;8.50;5.00;;;;;;;11.88;100.00;101972.75;5036795;28;20036;-96
2023/08/10 04:44:45;;;;;;;9.73;4.72;;;;;;;11.96;100.00;101985.41;5036016;28;20037;-96
2023/08/10 04:47:12;;;;;;;11.43;5.20;;;;;;;11.91;100.00;101985.97;5019675;28;20041;-96
2023/08/10 04:49:38;;;;;;;9.52;4.65;;;;;;;11.98;100.00;101991.50;5035509;28;20128;-96
2023/08/10 04:52:07;;;;;;;8.45;5.05;;;;;;;12.05;100.00;101992.41;5035192;28;20072;-96
2023/08/10 04:54:43;;;;;;;;;;;;;;;;;;;;;
2023/08/10 04:57:09;;;;;;;8.77;4.40;;;;;;;12.33;100.00;101991.53;5036075;28;20033;-96
2023/08/10 04:59:36;;;;;;;8.75;5.10;;;;;;;12.44;100.00;101989.09;5036502;28;20029;-96
2023/08/10 05:02:03;;;;;;;8.87;5.50;;;;;;;12.58;100.00;101995.47;5036005;28;20033;-96
2023/08/10 05:04:32;;;;;;;7.95;4.90;;;;;;;12.70;100.00;101995.75;5037449;28;20032;-96
2023/08/10 05:06:58;;;;;;;8.10;4.90;;;;;;;12.84;100.00;101993.91;5036671;28;20429;-96
2023/08/10 05:09:25;;;;;;;8.43;4.90;;;;;;;12.94;100.00;101994.38;5035531;28;20029;-96
2023/08/10 05:11:58;;;;;;;10.40;5.20;;;;;;;12.99;100.00;101983.72;5035646;28;20034;-96
2023/08/10 05:14:26;;;;;;;8.18;5.03;;;;;;;13.07;100.00;101984.59;5035528;28;20037;-96
2023/08/10 05:16:51;;;;;;;12.23;5.78;;;;;;;13.18;100.00;101988.59;5036635;28;20037;-96
2023/08/10 05:19:17;;;;;;;9.57;6.10;;;;;;;13.22;100.00;101993.44;5035695;28;20029;-96
2023/08/10 05:21:50;;;;;;;11.53;7.63;;;;;;;13.25;100.00;101986.75;5034771;28;20033;-96
2023/08/10 05:24:18;;;;;;;13.48;8.85;;;;;;;13.27;100.00;101990.94;5019320;28;20511;-96
2023/08/10 05:26:43;;;;;;;19.60;13.25;;;;;;;13.25;100.00;101997.66;5035001;28;20450;-96
2023/08/10 05:29:11;;;;;;;21.60;16.00;;;;;;;13.25;100.00;101987.56;5034600;28;20035;-96
2023/08/10 05:31:39;;;;;;;20.92;15.80;;;;;;;13.25;100.00;101990.28;5033978;28;20041;-96
2023/08/10 05:34:05;;;;;;;16.40;12.18;;;;;;;13.28;100.00;101995.34;5018541;28;20041;-96
2023/08/10 05:36:30;;;;;;;13.97;10.00;;;;;;;13.29;100.00;101994.31;5034451;28;20034;-96
2023/08/10 05:38:56;;;;;;;14.45;9.00;;;;;;;13.30;100.00;102000.56;5034498;28;20465;-96
2023/08/10 05:41:23;;;;;;;13.30;9.33;;;;;;;13.32;100.00;101990.31;5034728;28;20036;-96
2023/08/10 05:43:51;;;;;;;14.18;9.35;;;;;;;13.36;100.00;101990.78;5036124;28;20083;-96
2023/08/10 05:46:16;;;;;;;10.95;8.82;;;;;;;13.33;100.00;101984.66;5036285;28;20036;-95
2023/08/10 05:48:42;;;;;;;14.30;8.83;;;;;;;13.33;100.00;101983.81;5034298;28;20033;-91
2023/08/10 05:51:07;;;;;;;13.77;8.33;;;;;;;13.38;100.00;101977.81;5034963;28;20049;-90
2023/08/10 05:53:33;;;;;;;11.75;8.20;;;;;;;13.41;100.00;101991.84;5033962;28;20037;-90
2023/08/10 05:55:58;;;;;;;11.57;8.40;;;;;;;13.42;100.00;101979.91;5033921;28;20029;-90
2023/08/10 05:58:24;;;;;;;13.37;8.23;;;;;;;13.47;100.00;101985.56;5032823;28;20025;-91
2023/08/10 06:00:50;;;;;;;14.50;7.53;;;;;;;13.54;100.00;101992.91;5033699;28;20458;-90
2023/08/10 06:03:16;;;;;;;11.50;6.93;;;;;;;13.62;100.00;101990.00;5016366;28;20389;-89
2023/08/10 06:05:46;;;;;;;12.45;6.75;;;;;;;13.71;100.00;101991.47;5032300;28;20026;-88
2023/08/10 06:08:11;;;;;;;9.15;6.47;;;;;;;13.85;100.00;101992.31;5033352;28;20061;-89
2023/08/10 06:10:39;;;;;;;11.63;7.00;;;;;;;14.08;100.00;101991.88;5033887;28;20061;-88
2023/08/10 06:13:07;;;;;;;13.85;6.63;;;;;;;14.31;100.00;101982.44;5032276;28;20067;-90
2023/08/10 06:15:38;;;;;;;11.90;6.95;;;;;;;14.57;100.00;101985.09;5032548;28;20393;-90
2023/08/10 06:18:04;;;;;;;10.50;6.10;;;;;;;14.84;100.00;101985.03;5033166;28;20162;-88
2023/08/10 06:20:29;;;;;;;11.43;6.20;;;;;;;15.03;100.00;101987.91;5015924;28;20128;-85
2023/08/10 06:22:55;;;;;;;12.23;5.85;;;;;;;15.11;100.00;101987.66;5032092;28;20029;-85
2023/08/10 06:25:24;;;;;;;11.30;6.57;;;;;;;15.06;100.00;101995.69;5031853;28;20026;-85
2023/08/10 06:27:52;;;;;;;11.45;6.53;;;;;;;15.01;100.00;102003.66;5032911;28;20025;-85
2023/08/10 06:30:20;;;;;;;10.00;5.60;;;;;;;14.97;100.00;102006.00;5033615;28;20030;-85
2023/08/10 06:32:48;;;;;;;10.68;6.68;;;;;;;14.95;100.00;102001.81;5033473;28;20488;-85
2023/08/10 06:35:18;;;;;;;13.13;6.75;;;;;;;14.97;100.00;101997.81;5032259;28;20030;-85
2023/08/10 06:37:43;;;;;;;11.18;6.65;;;;;;;14.96;100.00;101996.13;5032272;28;20125;-84
2023/08/10 06:40:10;;;;;;;14.50;9.43;;;;;;;14.99;100.00;101992.97;5034095;28;20067;-85
2023/08/10 06:42:37;;;;;;;17.58;9.55;;;;;;;15.04;100.00;101995.03;5033989;28;20351;-85
2023/08/10 06:45:07;;;;;;;18.75;8.48;;;;;;;15.07;100.00;101984.53;5036268;28;20475;-85
2023/08/10 06:47:38;;;;;;;13.18;7.80;;;;;;;15.12;100.00;101983.00;5036369;28;20033;-85
2023/08/10 06:50:13;;;;;;;11.00;6.97;;;;;;;15.18;100.00;101987.63;5036697;28;20258;-85
2023/08/10 06:52:41;;;;;;;8.75;5.43;;;;;;;15.22;100.00;101976.03;5020396;28;20123;-85
2023/08/10 06:55:11;;;;;;;7.32;4.80;;;;;;;15.25;100.00;101972.84;5036018;28;20375;-86
2023/08/10 06:57:39;;;;;;;7.25;4.53;;;;;;;15.32;100.00;101981.00;5035922;28;20501;-86
2023/08/10 07:00:12;;;;;;;8.88;4.68;;;;;;;15.38;100.00;101979.28;5035777;28;20033;-86
2023/08/10 07:02:38;;;;;;;9.40;4.87;;;;;;;15.45;100.00;101977.34;5004567;28;20036;-85
2023/08/10 07:05:26;;;;;;;8.90;4.60;;;;;;;15.52;100.00;101977.31;5035852;28;20026;-86
2023/08/10 07:07:52;;;;;;;5.63;3.67;;;;;;;15.61;100.00;101979.56;5035565;28;20073;-86
2023/08/10 07:10:18;;;;;;;5.40;3.22;;;;;;;15.70;100.00;101973.81;5035470;28;20462;-85
2023/08/10 07:12:48;;;;;;;11.00;3.90;;;;;;;15.77;100.00;101977.34;5036586;28;20037;-85
2023/08/10 07:15:14;;;;;;;6.35;3.50;;;;;;;15.85;100.00;101973.53;5019526;28;20036;-85
2023/08/10 07:17:46;;;;;;;6.00;3.17;;;;;;;15.92;100.00;101969.66;5035866;28;20028;-85
2023/08/10 07:20:18;;;;;;;4.53;2.53;;;;;;;15.98;100.00;101973.41;5037688;28;20032;-86
2023/08/10 07:22:50;;;;;;;4.93;2.60;;;;;;;16.02;99.07;101971.91;5036883;28;20033;-87
2023/08/10 07:25:19;;;;;;;7.03;2.22;;;;;;;16.08;97.16;101978.38;5036433;28;20029;-87
2023/08/10 07:27:51;;;;;;;7.57;2.70;;;;;;;16.18;98.58;101986.91;5035150;28;20489;-83
2023/08/10 07:30:16;;;;;;;5.27;2.70;;;;;;;16.26;99.26;101983.88;5035118;28;20061;-85
2023/08/10 07:32:48;;;;;;;3.03;1.83;;;;;;;16.31;91.46;101983.19;5035322;28;20498;-84
2023/08/10 07:35:14;;;;;;;5.03;1.75;;;;;;;16.36;90.17;101983.38;5035327;28;20028;-83
2023/08/10 07:37:40;;;;;;;3.53;1.53;;;;;;;16.39;87.44;101973.88;5034809;28;20377;-84
2023/08/10 07:40:09;;;;;;;3.53;1.60;;;;;;;16.46;88.47;101980.94;5018872;28;20033;-84
2023/08/10 07:42:35;;;;;;;5.53;1.65;;;;;;;16.51;87.66;101974.78;5036568;28;20045;-84
2023/08/10 07:45:00;;;;;;;6.30;1.60;;;;;;;16.54;80.28;101973.50;5035540;28;20033;-84
2023/08/10 07:47:29;;;;;;;6.63;1.77;;;;;;;16.56;76.48;101977.66;5034791;28;20551;-84
2023/08/10 07:49:54;;;;;;;5.15;1.40;;;;;;;16.59;73.09;101985.41;5018355;28;20061;-84
2023/08/10 07:52:20;;;;;;;4.30;1.60;;;;;;;16.66;78.07;101975.22;5035026;28;20427;-84
2023/08/10 07:54:45;;;;;;;1.93;1.00;;;;;;;16.72;73.29;101978.13;5034304;28;20033;-84
2023/08/10 07:57:11;;;;;;;1.93;0.90;;;;;;;16.76;64.41;101971.13;5035131;28;20036;-84
2023/08/10 07:59:36;;;;;;;4.13;0.90;;;;;;;16.84;66.28;101973.53;5036267;28;20033;-84
2023/08/10 08:02:02;;;;;;;1.43;0.80;;;;;;;16.88;64.17;101977.53;5018507;28;20580;-84
2023/08/10 08:04:27;;;;;;;1.30;0.90;;;;;;;16.91;61.87;101974.31;5018499;28;20048;-85
2023/08/10 08:06:53;;;;;;;2.03;1.05;;;;;;;16.98;64.55;101979.72;5034329;28;20033;-85
2023/08/10 08:09:18;;;;;;;2.50;1.10;;;;;;;17.04;66.99;101981.53;5034927;28;20070;-84
2023/08/10 08:11:47;;;;;;;2.20;0.90;;;;;;;17.12;70.12;101977.63;5001994;28;20048;-84
2023/08/10 08:14:13;;;;;;;2.45;1.00;;;;;;;17.19;66.34;101971.00;5035514;28;20167;-84
2023/08/10 08:16:39;;;;;;;1.23;0.82;;;;;;;17.26;67.07;101968.16;5035909;28;20032;-84
2023/08/10 08:19:04;;;;;;;2.57;1.00;;;;;;;17.29;68.14;101978.66;5018197;28;20037;-84
2023/08/10 08:21:31;;;;;;;2.35;0.80;;;;;;;17.33;70.36;101968.06;5019092;28;20029;-85
2023/08/10 08:23:57;;;;;;;2.25;1.00;;;;;;;17.37;71.93;101977.50;5035548;28;20393;-84
2023/08/10 08:26:24;;;;;;;3.63;1.73;;;;;;;17.43;69.31;101975.72;5034336;28;20037;-85
2023/08/10 08:28:50;;;;;;;3.85;1.20;;;;;;;17.51;69.17;101972.66;5034437;28;20060;-85
2023/08/10 08:31:15;;;;;;;3.03;0.95;;;;;;;17.59;67.32;101976.97;5034112;28;20029;-85
2023/08/10 08:33:41;;;;;;;2.33;0.90;;;;;;;17.64;67.91;101979.84;5034325;28;20053;-86
2023/08/10 08:36:07;;;;;;;3.40;1.10;;;;;;;17.71;66.43;101980.56;5017944;28;20492;-86
2023/08/10 08:38:33;;;;;;;2.33;1.07;;;;;;;17.76;67.33;101988.94;5017726;28;20128;-85
2023/08/10 08:41:06;;;;;;;4.28;1.17;;;;;;;17.81;67.27;101980.00;5017591;28;20033;-85
2023/08/10 08:43:32;;;;;;;2.50;1.20;;;;;;;17.91;67.10;101984.91;5034875;28;20125;-85
2023/08/10 08:45:58;;;;;;;2.40;1.20;;;;;;;17.99;67.60;101987.31;5017560;28;20029;-85
2023/08/10 08:48:27;;;;;;;3.03;0.80;;;;;;;18.10;68.35;101978.25;5034315;28;20037;-85
2023/08/10 08:50:53;;;;;;;4.15;1.02;;;;;;;18.32;67.85;101978.50;5017819;28;20112;-85
2023/08/10 08:53:18;;;;;;;1.60;0.90;;;;;;;18.66;65.79;101983.34;5033780;28;20121;-86
2023/08/10 08:55:46;;;;;;;2.57;1.27;;;;;;;19.12;65.95;101978.81;5017356;28;20081;-85
2023/08/10 08:58:14;;;;;;;3.42;1.00;;;;;;;19.71;62.58;101985.91;5035066;28;20025;-86
2023/08/10 09:00:42;;;;;;;1.98;0.93;;;;;;;20.13;60.36;101982.78;5033809;28;20033;-85
2023/08/10 09:03:10;;;;;;;1.95;1.02;;;;;;;20.41;59.87;101976.28;5017504;28;20034;-85
2023/08/10 09:05:36;;;;;;;2.30;1.17;;;;;;;20.82;59.09;101976.84;5016717;28;20036;-85
2023/08/10 09:08:02;;;;;;;3.92;1.23;;;;;;;21.45;58.68;101965.41;5000762;28;20398;-85
2023/08/10 09:10:28;;;;;;;4.30;1.10;;;;;;;22.08;56.79;101960.09;5034631;28;20037;-85
2023/08/10 09:12:54;;;;;;;4.78;1.25;;;;;;;22.55;55.18;101958.47;5033569;28;20064;-85
2023/08/10 09:15:19;;;;;;;2.60;1.05;;;;;;;23.00;54.60;101961.69;5016787;28;20487;-85
2023/08/10 09:17:52;;;;;;;1.70;1.13;;;;;;;23.19;53.37;101961.19;5033736;28;20079;-86
2023/08/10 09:20:25;;;;;;;3.35;1.50;;;;;;;23.36;52.90;101952.66;5034832;28;20064;-85
2023/08/10 09:22:53;;;;;;;2.35;1.23;;;;;;;23.75;50.65;101952.91;5033508;28;20121;-85
2023/08/10 09:25:18;;;;;;;2.90;1.30;;;;;;;24.22;49.53;101959.25;5033275;28;20170;-85
2023/08/10 09:27:45;;;;;;;2.88;1.30;;;;;;;24.16;48.91;101960.38;5033914;28;20112;-85
2023/08/10 09:30:11;;;;;;;2.45;1.25;;;;;;;23.93;47.84;101962.66;5000769;28;20487;-85
2023/08/10 09:32:39;;;;;;;2.13;1.30;;;;;;;23.92;49.51;101963.75;5032926;28;20065;-85
2023/08/10 09:35:05;;;;;;;3.10;1.13;;;;;;;24.00;49.29;101954.03;5033398;28;20049;-86
2023/08/10 09:37:34;;;;;;;7.00;1.77;;;;;;;24.00;49.66;101954.03;5032640;28;20112;-86
2023/08/10 09:40:08;;;;;;;3.25;1.25;;;;;;;24.09;50.43;101955.13;5033739;28;20033;-86
2023/08/10 09:42:34;;;;;;;2.83;1.42;;;;;;;24.51;49.51;101951.13;5033531;28;20432;-85
2023/08/10 09:45:05;;;;;;;2.40;1.40;;;;;;;24.50;48.24;101960.56;5032899;28;20055;-86
2023/08/10 09:47:40;;;;;;;4.55;1.95;;;;;;;24.23;49.84;101962.88;5034257;28;20068;-85
2023/08/10 09:50:12;;;;;;;2.92;1.77;;;;;;;24.33;48.51;101962.81;5033995;28;20057;-86
2023/08/10 09:52:39;;;;;;;2.28;1.70;;;;;;;24.58;48.71;101956.38;5034761;28;20025;-86
2023/08/10 09:55:06;;;;;;;3.05;1.52;;;;;;;24.89;47.15;101955.44;5034295;28;20025;-86
2023/08/10 09:57:32;;;;;;;2.80;1.73;;;;;;;25.08;48.06;101950.84;5032929;28;20087;-86
2023/08/10 09:59:58;;;;;;;4.90;1.63;;;;;;;25.21;46.01;101954.94;5032535;28;20424;-86
2023/08/10 10:02:25;;;;;;;2.88;1.70;;;;;;;25.39;46.30;101957.09;5032626;28;20037;-85
2023/08/10 10:04:51;;;;;;;3.83;1.70;;;;;;;25.33;46.46;101955.44;5016064;28;20091;-85
2023/08/10 10:07:23;;;;;;;2.92;1.70;;;;;;;25.43;45.91;101959.28;5033568;28;20026;-86
2023/08/10 10:09:50;;;;;;;3.55;1.42;;;;;;;25.55;45.71;101957.78;5033860;28;20044;-86
2023/08/10 10:12:16;;;;;;;5.30;1.60;;;;;;;25.63;45.82;101959.13;5032827;28;20030;-86
2023/08/10 10:14:44;;;;;;;3.07;1.97;;;;;;;25.91;44.23;101954.69;5016284;28;20044;-86
2023/08/10 10:17:17;;;;;;;6.03;1.88;;;;;;;25.92;44.01;101958.28;5032142;28;20124;-86
2023/08/10 10:19:44;;;;;;;3.88;1.52;;;;;;;25.46;44.22;101965.06;5032484;28;20171;-86
2023/08/10 10:22:10;;;;;;;3.38;1.95;;;;;;;25.28;44.45;101976.84;5032699;28;20029;-86
2023/08/10 10:24:40;;;;;;;3.10;1.70;;;;;;;25.43;46.08;101965.66;5033985;28;20030;-86
2023/08/10 10:27:09;;;;;;;2.45;1.60;;;;;;;25.73;45.66;101964.59;5032228;28;20025;-86
2023/08/10 10:29:46;;;;;;;3.60;1.77;;;;;;;26.06;44.34;101964.03;5016384;28;20425;-86
2023/08/10 10:32:13;;;;;;;3.85;2.13;;;;;;;26.41;43.40;101971.16;5032589;28;20038;-86
2023/08/10 10:34:40;;;;;;;3.90;1.55;;;;;;;26.81;42.94;101964.56;5032158;28;20041;-86
2023/08/10 10:37:12;;;;;;;2.40;1.43;;;;;;;27.04;42.22;101960.91;5034573;28;20021;-85
2023/08/10 10:40:22;;;;;;;3.88;1.52;;;;;;;27.34;43.59;101961.59;5032611;28;20026;-86
2023/08/10 10:43:07;;;;;;;5.25;2.20;;;;;;;27.77;42.18;101961.44;5031084;28;20125;-86
2023/08/10 10:45:38;;;;;;;2.72;1.70;;;;;;;28.25;40.69;101951.94;5015649;28;20034;-86
2023/08/10 10:48:05;;;;;;;4.40;1.98;;;;;;;28.55;39.34;101951.63;5033098;28;20034;-85
2023/08/10 10:50:32;;;;;;;5.37;2.27;;;;;;;28.73;38.64;101966.63;5031654;28;20041;-86
2023/08/10 10:53:00;;;;;;;3.45;1.73;;;;;;;28.98;38.01;101954.91;5032474;28;20029;-86
2023/08/10 10:55:28;;;;;;;2.72;1.70;;;;;;;29.45;36.51;101948.22;5033444;28;20087;-86
2023/08/10 10:57:53;;;;;;;2.42;1.80;;;;;;;29.84;37.30;101938.31;5032222;28;20029;-86
2023/08/10 11:00:22;;;;;;;2.70;1.90;;;;;;;29.67;36.29;101939.00;5031924;28;20029;-86
2023/08/10 11:02:48;;;;;;;3.60;1.93;;;;;;;29.36;36.03;101940.59;5015909;28;20371;-86
2023/08/10 11:05:20;;;;;;;2.58;2.00;;;;;;;29.47;36.42;101945.94;5031528;28;20048;-86
2023/08/10 11:07:50;;;;;;;4.40;1.70;;;;;;;30.13;36.83;101936.97;5016910;28;20033;-86
2023/08/10 11:10:17;;;;;;;2.92;2.00;;;;;;;30.84;35.55;101936.84;5032171;28;20112;-86
2023/08/10 11:12:44;;;;;;;4.38;2.20;;;;;;;31.43;34.24;101938.34;5031868;28;20033;-86
2023/08/10 11:15:12;;;;;;;4.43;2.63;;;;;;;31.55;33.74;101940.47;5032243;28;20059;-86
2023/08/10 11:17:46;;;;;;;2.88;2.00;;;;;;;31.49;33.35;101935.03;5033035;28;20117;-86
2023/08/10 11:20:14;;;;;;;2.78;1.80;;;;;;;31.60;32.75;101932.72;5032453;28;20432;-87
2023/08/10 11:22:47;;;;;;;3.90;2.00;;;;;;;32.07;32.93;101934.72;5015791;28;20096;-86
2023/08/10 11:25:15;;;;;;;6.28;1.92;;;;;;;33.60;30.54;101928.19;5031603;28;20033;-87
2023/08/10 11:27:49;;;;;;;2.40;2.20;;;;;;;36.63;26.93;101926.56;5031560;28;20025;-86
2023/08/10 11:30:17;;;;;;;3.22;2.40;;;;;;;37.89;24.60;101931.97;5034750;28;20053;-86
2023/08/10 11:32:47;;;;;;;2.30;2.10;;;;;;;40.17;22.88;101922.25;5036768;28;20037;-86